Time;durP1;ratioP1;P1;durP2;ratioP2;P2;SDS_P1;SDS_P2;PMS_P1;PMS_P2;Temp;Humidity;BMP_temperature;BMP_pressure;BME280_temperature;BME280_humidity;BME280_pressure;Samples;Min_cycle;Max_cycle;Signal;HPM_P1;HPM_P2
2022/03/29 00:01:15;;;;;;;29.90;18.48;;;;;;;;;;4955359;28;20023;-74
2022/03/29 00:03:41;;;;;;;36.70;21.15;;;;;;;;;;4955751;28;20505;-75
2022/03/29 00:06:07;;;;;;;37.05;20.77;;;;;;;;;;4954388;29;20019;-74
2022/03/29 00:08:33;;;;;;;31.77;19.00;;;;;;;;;;4955284;28;20043;-76
2022/03/29 00:10:59;;;;;;;30.88;19.00;;;;;;;;;;4955647;28;20047;-75
2022/03/29 00:13:25;;;;;;;34.42;18.80;;;;;;;;;;4955931;28;20108;-76
2022/03/29 00:15:50;;;;;;;32.85;19.33;;;;;;;;;;4955718;28;20027;-74
2022/03/29 00:18:16;;;;;;;36.35;20.00;;;;;;;;;;4955666;28;20561;-74
2022/03/29 00:20:42;;;;;;;33.45;19.35;;;;;;;;;;4955528;28;20034;-73
2022/03/29 00:23:08;;;;;;;33.80;20.05;;;;;;;;;;4955315;28;20031;-75
2022/03/29 00:25:34;;;;;;;30.90;18.55;;;;;;;;;;4955570;28;20038;-73
2022/03/29 00:28:00;;;;;;;30.23;19.55;;;;;;;;;;4955434;28;20131;-75
2022/03/29 00:30:26;;;;;;;29.63;18.80;;;;;;;;;;4970506;28;20438;-74
2022/03/29 00:32:53;;;;;;;29.65;18.40;;;;;;;;;;4955487;28;20054;-75
2022/03/29 00:35:19;;;;;;;29.42;18.92;;;;;;;;;;4954369;29;20386;-73
2022/03/29 00:37:45;;;;;;;33.95;20.20;;;;;;;;;;4955368;28;20035;-73
2022/03/29 00:40:12;;;;;;;27.85;18.92;;;;;;;;;;4955336;29;20082;-73
2022/03/29 00:42:38;;;;;;;32.13;19.63;;;;;;;;;;4955131;28;20475;-73
2022/03/29 00:45:06;;;;;;;31.20;18.65;;;;;;;;;;4955104;28;20049;-73
2022/03/29 00:47:31;;;;;;;27.83;18.65;;;;;;;;;;4955222;28;20040;-72
2022/03/29 00:49:57;;;;;;;30.40;19.30;;;;;;;;;;4955626;28;20394;-74
2022/03/29 00:52:24;;;;;;;29.40;19.73;;;;;;;;;;4955019;28;20089;-73
2022/03/29 00:54:50;;;;;;;28.63;19.27;;;;;;;;;;4954910;28;20043;-74
2022/03/29 00:57:16;;;;;;;31.80;21.08;;;;;;;;;;4953590;28;20073;-76
2022/03/29 00:59:44;;;;;;;33.10;20.17;;;;;;;;;;4934598;28;20051;-73
2022/03/29 01:02:10;;;;;;;33.28;20.40;;;;;;;;;;4935769;29;20035;-73
2022/03/29 01:04:36;;;;;;;41.08;22.88;;;;;;;;;;4935605;29;20383;-74
2022/03/29 01:07:02;;;;;;;38.65;21.65;;;;;;;;;;4934900;29;20042;-73
2022/03/29 01:09:30;;;;;;;37.22;20.92;;;;;;;;;;4935505;29;20034;-74
2022/03/29 01:11:57;;;;;;;38.08;22.95;;;;;;;;;;4935689;29;20032;-72
2022/03/29 01:14:24;;;;;;;33.95;20.98;;;;;;;;;;4935447;29;20051;-72
2022/03/29 01:19:39;;;;;;;30.15;19.65;;;;;;;;;;4935499;29;20036;-75
2022/03/29 01:22:07;;;;;;;28.40;18.50;;;;;;;;;;4935618;29;20039;-73
2022/03/29 01:24:37;;;;;;;32.38;18.08;;;;;;;;;;4935441;29;20027;-74
2022/03/29 01:27:05;;;;;;;28.92;18.10;;;;;;;;;;4935350;29;20487;-73
2022/03/29 01:29:33;;;;;;;31.77;17.88;;;;;;;;;;4939858;29;20035;-71
2022/03/29 01:32:03;;;;;;;29.00;19.27;;;;;;;;;;4940709;29;20114;-73
2022/03/29 01:34:29;;;;;;;26.27;17.83;;;;;;;;;;4938133;29;20526;-75
2022/03/29 01:36:55;;;;;;;31.02;16.85;;;;;;;;;;4938956;29;20035;-75
2022/03/29 01:39:21;;;;;;;27.80;16.23;;;;;;;;;;4939388;29;20094;-71
2022/03/29 01:41:49;;;;;;;24.70;16.10;;;;;;;;;;4935260;29;20024;-73
2022/03/29 01:44:15;;;;;;;28.40;16.15;;;;;;;;;;4935129;29;20032;-74
2022/03/29 01:46:41;;;;;;;24.02;15.60;;;;;;;;;;4934883;29;20368;-74
2022/03/29 01:49:07;;;;;;;29.85;16.13;;;;;;;;;;4934659;29;20510;-74
2022/03/29 01:51:33;;;;;;;25.10;16.48;;;;;;;;;;4935046;29;20034;-72
2022/03/29 01:54:02;;;;;;;21.67;15.82;;;;;;;;;;4935217;29;20111;-72
2022/03/29 01:56:31;;;;;;;21.20;14.52;;;;;;;;;;4934822;29;20335;-70
2022/03/29 01:58:57;;;;;;;22.95;13.80;;;;;;;;;;4934719;29;20040;-74
2022/03/29 02:01:23;;;;;;;28.40;14.75;;;;;;;;;;4935265;29;20450;-75
2022/03/29 02:03:49;;;;;;;23.15;14.18;;;;;;;;;;4934896;29;20040;-73
2022/03/29 02:06:15;;;;;;;26.40;13.55;;;;;;;;;;4949374;29;20027;-72
2022/03/29 02:08:41;;;;;;;23.90;14.40;;;;;;;;;;4934687;29;20094;-71
2022/03/29 02:11:08;;;;;;;22.77;13.93;;;;;;;;;;4934536;29;20047;-71
2022/03/29 02:13:35;;;;;;;24.75;14.32;;;;;;;;;;4934682;29;20039;-72
2022/03/29 02:16:00;;;;;;;22.45;13.88;;;;;;;;;;4943364;28;20034;-73
2022/03/29 02:18:26;;;;;;;22.95;13.52;;;;;;;;;;4935125;29;20487;-73
2022/03/29 02:20:52;;;;;;;22.83;13.98;;;;;;;;;;4938681;29;20030;-73
2022/03/29 02:23:18;;;;;;;22.55;13.57;;;;;;;;;;4938761;29;20044;-73
2022/03/29 02:25:47;;;;;;;26.30;14.55;;;;;;;;;;4938724;29;20028;-74
2022/03/29 02:28:15;;;;;;;23.73;13.80;;;;;;;;;;4938333;29;20487;-73
2022/03/29 02:30:41;;;;;;;35.35;14.07;;;;;;;;;;4938367;29;20427;-72
2022/03/29 02:33:07;;;;;;;39.75;14.98;;;;;;;;;;4938777;29;20031;-72
2022/03/29 02:35:33;;;;;;;30.15;14.85;;;;;;;;;;4938345;29;20040;-74
2022/03/29 02:38:00;;;;;;;27.88;14.95;;;;;;;;;;4937968;29;20394;-73
2022/03/29 02:40:26;;;;;;;24.52;13.38;;;;;;;;;;4938343;29;20541;-74
2022/03/29 02:42:53;;;;;;;29.85;14.27;;;;;;;;;;4938265;29;20474;-74
2022/03/29 02:45:21;;;;;;;37.22;14.93;;;;;;;;;;4938102;29;20371;-71
2022/03/29 02:47:49;;;;;;;34.55;15.73;;;;;;;;;;4938101;29;20046;-72
2022/03/29 02:50:16;;;;;;;35.70;16.30;;;;;;;;;;4937928;29;20431;-73
2022/03/29 02:52:54;;;;;;;35.67;16.65;;;;;;;;;;4938283;29;20047;-72
2022/03/29 02:55:22;;;;;;;30.00;15.10;;;;;;;;;;4937942;29;20036;-72
2022/03/29 02:57:48;;;;;;;26.02;15.20;;;;;;;;;;4941486;29;20028;-72
2022/03/29 03:00:16;;;;;;;24.38;14.90;;;;;;;;;;4938258;29;20118;-72
2022/03/29 03:02:46;;;;;;;22.58;13.57;;;;;;;;;;4938326;29;20028;-74
2022/03/29 03:05:12;;;;;;;26.58;14.70;;;;;;;;;;4936891;29;20382;-75
2022/03/29 03:07:39;;;;;;;37.63;17.50;;;;;;;;;;4937657;29;20020;-74
2022/03/29 03:10:06;;;;;;;31.65;18.02;;;;;;;;;;4937849;29;20036;-73
2022/03/29 03:12:39;;;;;;;30.48;16.65;;;;;;;;;;4936423;29;20495;-72
2022/03/29 03:15:06;;;;;;;34.85;16.73;;;;;;;;;;4937444;29;20027;-73
2022/03/29 03:17:32;;;;;;;32.70;17.08;;;;;;;;;;4937100;29;20486;-73
2022/03/29 03:19:58;;;;;;;28.38;17.10;;;;;;;;;;4937578;29;20205;-73
2022/03/29 03:22:24;;;;;;;30.60;15.98;;;;;;;;;;4937425;29;20075;-73
2022/03/29 03:24:50;;;;;;;31.75;14.45;;;;;;;;;;4933345;29;20127;-73
2022/03/29 03:27:16;;;;;;;27.83;15.32;;;;;;;;;;4936625;29;20102;-73
2022/03/29 03:29:44;;;;;;;35.67;17.95;;;;;;;;;;4935610;29;20046;-74
2022/03/29 03:32:10;;;;;;;33.58;18.98;;;;;;;;;;4936357;29;20027;-75
2022/03/29 03:34:36;;;;;;;37.38;21.23;;;;;;;;;;4937102;29;20066;-73
2022/03/29 03:37:05;;;;;;;34.53;21.35;;;;;;;;;;4936700;29;20534;-74
2022/03/29 03:39:33;;;;;;;38.85;20.05;;;;;;;;;;4936545;29;20066;-74
2022/03/29 03:42:02;;;;;;;27.55;17.60;;;;;;;;;;4936765;29;20024;-72
2022/03/29 03:44:28;;;;;;;35.65;17.70;;;;;;;;;;4942829;28;20080;-75
2022/03/29 03:46:54;;;;;;;27.75;16.17;;;;;;;;;;4930748;29;20047;-74
2022/03/29 03:49:20;;;;;;;23.13;15.15;;;;;;;;;;4936387;29;20039;-74
2022/03/29 03:51:46;;;;;;;35.40;17.02;;;;;;;;;;4936403;29;20502;-73
2022/03/29 03:54:12;;;;;;;29.33;15.43;;;;;;;;;;4936496;29;20040;-74
2022/03/29 03:56:38;;;;;;;29.98;15.55;;;;;;;;;;4932069;29;20032;-72
2022/03/29 03:59:04;;;;;;;35.20;16.58;;;;;;;;;;4935969;29;20040;-73
2022/03/29 04:01:30;;;;;;;31.75;16.65;;;;;;;;;;4935572;29;20040;-74
2022/03/29 04:03:56;;;;;;;39.63;17.92;;;;;;;;;;4936468;29;20369;-75
2022/03/29 04:06:21;;;;;;;35.90;16.38;;;;;;;;;;4935952;29;20080;-73
2022/03/29 04:08:47;;;;;;;49.03;18.67;;;;;;;;;;4935474;29;20491;-72
2022/03/29 04:11:13;;;;;;;51.95;21.80;;;;;;;;;;4935744;29;20044;-71
2022/03/29 04:13:39;;;;;;;42.92;20.33;;;;;;;;;;4936048;29;20032;-72
2022/03/29 04:16:05;;;;;;;46.55;21.40;;;;;;;;;;4930280;29;20502;-72
2022/03/29 04:18:30;;;;;;;32.88;18.55;;;;;;;;;;4931278;29;20028;-73
2022/03/29 04:20:57;;;;;;;41.45;18.63;;;;;;;;;;4934355;29;20024;-74
2022/03/29 04:23:23;;;;;;;50.35;19.45;;;;;;;;;;4928348;29;20051;-74
2022/03/29 04:25:49;;;;;;;35.92;20.00;;;;;;;;;;4920430;29;20119;-74
2022/03/29 04:28:15;;;;;;;38.45;18.50;;;;;;;;;;4925616;29;20060;-74
2022/03/29 04:30:41;;;;;;;36.15;19.13;;;;;;;;;;4917638;29;20032;-73
2022/03/29 04:33:07;;;;;;;53.38;20.98;;;;;;;;;;4917650;29;20810;-74
2022/03/29 04:35:33;;;;;;;39.13;19.05;;;;;;;;;;4917345;29;20031;-74
2022/03/29 04:37:58;;;;;;;31.27;17.48;;;;;;;;;;4918365;29;20047;-75
2022/03/29 04:40:24;;;;;;;36.28;17.92;;;;;;;;;;4934615;29;20106;-76
2022/03/29 04:42:51;;;;;;;34.63;18.27;;;;;;;;;;4936198;29;20079;-75
2022/03/29 04:45:19;;;;;;;43.90;18.83;;;;;;;;;;4936209;29;20028;-74
2022/03/29 04:47:46;;;;;;;31.65;17.48;;;;;;;;;;4935900;29;20110;-75
2022/03/29 04:50:13;;;;;;;30.27;18.30;;;;;;;;;;4936078;29;20032;-75
2022/03/29 04:52:44;;;;;;;26.85;16.08;;;;;;;;;;4936321;29;20089;-76
2022/03/29 04:55:11;;;;;;;38.90;16.88;;;;;;;;;;4937832;29;20035;-77
2022/03/29 04:57:36;;;;;;;32.58;15.88;;;;;;;;;;4939473;29;20032;-75
2022/03/29 05:00:04;;;;;;;29.08;16.65;;;;;;;;;;4936715;29;20485;-75
2022/03/29 05:02:31;;;;;;;25.45;14.57;;;;;;;;;;4935796;29;20027;-76
2022/03/29 05:04:57;;;;;;;31.38;14.80;;;;;;;;;;4934575;29;20039;-73
2022/03/29 05:07:23;;;;;;;28.63;14.95;;;;;;;;;;4935286;29;20023;-76
2022/03/29 05:09:50;;;;;;;23.27;14.90;;;;;;;;;;4935298;29;20044;-76
2022/03/29 05:12:16;;;;;;;34.47;16.10;;;;;;;;;;4935387;29;20039;-76
2022/03/29 05:14:43;;;;;;;28.05;14.45;;;;;;;;;;4933892;29;20083;-75
2022/03/29 05:17:09;;;;;;;25.10;14.60;;;;;;;;;;4935794;29;20028;-75
2022/03/29 05:19:35;;;;;;;30.17;14.73;;;;;;;;;;4935794;29;20139;-77
2022/03/29 05:22:01;;;;;;;40.97;16.08;;;;;;;;;;4935958;29;20039;-76
2022/03/29 05:24:27;;;;;;;30.98;14.52;;;;;;;;;;4936289;29;20036;-77
2022/03/29 05:26:52;;;;;;;31.27;16.65;;;;;;;;;;4936027;29;20027;-76
2022/03/29 05:29:18;;;;;;;31.30;15.77;;;;;;;;;;4935551;29;20051;-76
2022/03/29 05:31:44;;;;;;;45.10;16.33;;;;;;;;;;4935572;29;20023;-76
2022/03/29 05:34:10;;;;;;;36.55;17.08;;;;;;;;;;4936208;29;20107;-74
2022/03/29 05:36:36;;;;;;;34.83;17.02;;;;;;;;;;4935702;29;20027;-76
2022/03/29 05:39:03;;;;;;;30.83;17.50;;;;;;;;;;4935681;29;20059;-76
2022/03/29 05:41:29;;;;;;;46.38;18.02;;;;;;;;;;4935289;29;20031;-73
2022/03/29 05:43:55;;;;;;;30.25;16.85;;;;;;;;;;4934851;29;20035;-76
2022/03/29 05:49:05;;;;;;;37.42;17.83;;;;;;;;;;4935382;29;20043;-77
2022/03/29 05:51:31;;;;;;;34.13;18.55;;;;;;;;;;4935289;29;20028;-76
2022/03/29 05:53:59;;;;;;;37.90;19.73;;;;;;;;;;4934653;29;20118;-76
2022/03/29 05:56:24;;;;;;;46.17;22.33;;;;;;;;;;4936335;29;20034;-73
2022/03/29 05:58:51;;;;;;;55.63;22.02;;;;;;;;;;4937661;29;20044;-74
2022/03/29 06:01:18;;;;;;;38.50;21.70;;;;;;;;;;4937015;29;20028;-76
2022/03/29 06:03:44;;;;;;;37.25;21.15;;;;;;;;;;4936160;29;20044;-76
2022/03/29 06:06:10;;;;;;;43.65;21.00;;;;;;;;;;4935548;29;20035;-74
2022/03/29 06:08:36;;;;;;;46.05;20.88;;;;;;;;;;4935038;29;20039;-74
2022/03/29 06:11:04;;;;;;;49.58;20.63;;;;;;;;;;4934911;29;20123;-74
2022/03/29 06:13:30;;;;;;;31.58;18.30;;;;;;;;;;4935144;29;20039;-73
2022/03/29 06:15:56;;;;;;;37.13;18.83;;;;;;;;;;4933806;29;20055;-75
2022/03/29 06:18:22;;;;;;;35.53;19.65;;;;;;;;;;4935175;29;20095;-74
2022/03/29 06:20:49;;;;;;;47.22;20.30;;;;;;;;;;4935028;29;20030;-74
2022/03/29 06:23:16;;;;;;;37.00;18.30;;;;;;;;;;4933927;29;20055;-75
2022/03/29 06:25:42;;;;;;;31.70;19.05;;;;;;;;;;4935185;29;20039;-76
2022/03/29 06:28:10;;;;;;;28.58;18.27;;;;;;;;;;4935258;29;20467;-75
2022/03/29 06:30:38;;;;;;;34.88;17.40;;;;;;;;;;4934490;29;20028;-74
2022/03/29 06:33:04;;;;;;;38.78;18.60;;;;;;;;;;4935488;29;20036;-75
2022/03/29 06:35:31;;;;;;;40.15;18.90;;;;;;;;;;4930916;29;20038;-73
2022/03/29 06:37:58;;;;;;;30.25;18.60;;;;;;;;;;4926412;29;20566;-74
2022/03/29 06:40:28;;;;;;;28.63;17.17;;;;;;;;;;4915691;29;20024;-75
2022/03/29 06:42:57;;;;;;;32.05;17.95;;;;;;;;;;4927559;29;20055;-77
2022/03/29 06:45:24;;;;;;;31.13;16.83;;;;;;;;;;4924441;29;20040;-74
2022/03/29 06:47:50;;;;;;;24.63;16.80;;;;;;;;;;4933461;29;20031;-74
2022/03/29 06:50:16;;;;;;;26.63;16.80;;;;;;;;;;4934588;29;20035;-72
2022/03/29 06:52:44;;;;;;;27.85;16.38;;;;;;;;;;4932340;29;20068;-77
2022/03/29 06:55:12;;;;;;;27.70;16.33;;;;;;;;;;4925869;29;20055;-77
2022/03/29 06:57:39;;;;;;;25.90;15.45;;;;;;;;;;4934291;29;20126;-75
2022/03/29 07:00:09;;;;;;;34.67;15.73;;;;;;;;;;4934514;29;20036;-75
2022/03/29 07:02:37;;;;;;;24.77;14.57;;;;;;;;;;4934614;29;20163;-77
2022/03/29 07:05:04;;;;;;;24.92;15.98;;;;;;;;;;4934566;29;20050;-74
2022/03/29 07:07:30;;;;;;;36.22;16.05;;;;;;;;;;4937182;29;20039;-78
2022/03/29 07:12:57;;;;;;;27.95;15.32;;;;;;;;;;4927514;29;20414;-78
2022/03/29 07:15:23;;;;;;;35.88;16.38;;;;;;;;;;4934091;29;20119;-78
2022/03/29 07:17:49;;;;;;;30.35;15.45;;;;;;;;;;4937372;29;20047;-76
2022/03/29 07:20:16;;;;;;;27.48;17.38;;;;;;;;;;4938389;29;20090;-77
2022/03/29 07:28:59;;;;;;;31.42;17.10;;;;;;;;;;4898243;29;20508;-78
2022/03/29 07:31:25;;;;;;;29.67;16.85;;;;;;;;;;4952519;29;20491;-78
2022/03/29 07:33:50;;;;;;;32.38;18.38;;;;;;;;;;4933174;29;20109;-75
2022/03/29 07:36:16;;;;;;;24.25;16.77;;;;;;;;;;4934623;29;20038;-75
2022/03/29 07:38:42;;;;;;;33.25;18.95;;;;;;;;;;4937698;29;20114;-77
2022/03/29 07:41:08;;;;;;;29.08;17.52;;;;;;;;;;4936199;29;20042;-77
2022/03/29 07:43:34;;;;;;;27.27;18.67;;;;;;;;;;4938493;29;20031;-75
2022/03/29 07:46:00;;;;;;;24.38;16.85;;;;;;;;;;4937543;29;20031;-76
2022/03/29 07:48:26;;;;;;;27.00;17.13;;;;;;;;;;4938630;29;20024;-77
2022/03/29 07:50:52;;;;;;;26.88;17.02;;;;;;;;;;4937624;29;20032;-76
2022/03/29 07:53:18;;;;;;;25.33;17.80;;;;;;;;;;4937069;29;20055;-76
2022/03/29 07:55:45;;;;;;;32.92;17.98;;;;;;;;;;4936868;29;20537;-75
2022/03/29 07:58:12;;;;;;;24.30;17.00;;;;;;;;;;4937278;29;20036;-76
2022/03/29 08:00:39;;;;;;;26.50;17.05;;;;;;;;;;4937126;29;20031;-78
2022/03/29 08:03:15;;;;;;;26.52;16.65;;;;;;;;;;4936972;29;20024;-78
2022/03/29 08:05:42;;;;;;;25.98;16.65;;;;;;;;;;4936923;29;20513;-78
2022/03/29 08:08:11;;;;;;;28.52;16.08;;;;;;;;;;4936590;29;20114;-77
2022/03/29 08:10:39;;;;;;;25.15;14.82;;;;;;;;;;4937146;29;20032;-77
2022/03/29 08:13:10;;;;;;;24.50;15.15;;;;;;;;;;4936829;29;20043;-75
2022/03/29 08:15:40;;;;;;;23.20;13.75;;;;;;;;;;4936830;29;20486;-75
2022/03/29 08:18:07;;;;;;;24.25;14.88;;;;;;;;;;4935327;29;20036;-77
2022/03/29 08:20:34;;;;;;;22.48;14.07;;;;;;;;;;4937149;29;20115;-75
2022/03/29 08:23:00;;;;;;;21.95;13.60;;;;;;;;;;4937283;29;20038;-75
2022/03/29 08:25:29;;;;;;;19.55;11.93;;;;;;;;;;4936488;29;20044;-78
2022/03/29 08:27:56;;;;;;;28.33;12.13;;;;;;;;;;4935345;29;20086;-75
2022/03/29 08:30:24;;;;;;;17.95;9.13;;;;;;;;;;4936407;29;20032;-74
2022/03/29 08:32:51;;;;;;;16.55;9.80;;;;;;;;;;4936205;29;20123;-78
2022/03/29 08:35:17;;;;;;;20.90;10.73;;;;;;;;;;4936135;29;20032;-78
2022/03/29 08:37:43;;;;;;;19.17;10.20;;;;;;;;;;4935340;29;20047;-77
2022/03/29 08:40:16;;;;;;;14.50;9.63;;;;;;;;;;4936458;29;20028;-76
2022/03/29 08:42:46;;;;;;;17.90;10.10;;;;;;;;;;4936667;29;20040;-77
2022/03/29 08:45:14;;;;;;;15.70;9.50;;;;;;;;;;4936537;29;20043;-75
2022/03/29 08:47:42;;;;;;;13.70;10.20;;;;;;;;;;4936092;29;20454;-77
2022/03/29 08:50:12;;;;;;;17.98;8.77;;;;;;;;;;4934589;29;20045;-78
2022/03/29 08:52:39;;;;;;;14.52;10.00;;;;;;;;;;4936294;29;20098;-77
2022/03/29 08:55:06;;;;;;;18.45;9.90;;;;;;;;;;4935778;29;20107;-75
2022/03/29 08:57:32;;;;;;;29.25;11.38;;;;;;;;;;4935911;29;20035;-77
2022/03/29 08:59:59;;;;;;;16.85;10.60;;;;;;;;;;4930702;29;20032;-77
2022/03/29 09:02:26;;;;;;;19.90;10.73;;;;;;;;;;4934349;29;20039;-76
2022/03/29 09:05:15;;;;;;;18.48;11.43;;;;;;;;;;4935783;29;20091;-76
2022/03/29 09:07:51;;;;;;;20.10;11.07;;;;;;;;;;4934445;29;20367;-77
2022/03/29 09:10:19;;;;;;;25.58;11.80;;;;;;;;;;4935501;29;20039;-78
2022/03/29 09:12:45;;;;;;;20.60;9.90;;;;;;;;;;4935568;29;20036;-76
2022/03/29 09:15:12;;;;;;;18.90;9.85;;;;;;;;;;4935625;29;20043;-77
2022/03/29 09:17:46;;;;;;;19.40;9.93;;;;;;;;;;4935784;29;20103;-78
2022/03/29 09:20:20;;;;;;;19.73;9.68;;;;;;;;;;4935678;29;20059;-77
2022/03/29 09:22:52;;;;;;;18.00;8.50;;;;;;;;;;4935480;29;20035;-77
2022/03/29 09:25:23;;;;;;;15.45;8.48;;;;;;;;;;4935720;29;20130;-75
2022/03/29 09:27:52;;;;;;;20.85;9.48;;;;;;;;;;4934802;29;20055;-77
2022/03/29 09:30:18;;;;;;;19.48;9.52;;;;;;;;;;4935152;29;20047;-75
2022/03/29 09:32:56;;;;;;;19.15;9.30;;;;;;;;;;4935038;29;20039;-75
2022/03/29 09:35:22;;;;;;;17.80;9.95;;;;;;;;;;4935644;29;20509;-79
2022/03/29 09:37:48;;;;;;;32.95;11.95;;;;;;;;;;4935783;29;20028;-76
2022/03/29 09:40:15;;;;;;;19.23;10.82;;;;;;;;;;4935133;29;20043;-77
2022/03/29 09:43:02;;;;;;;27.23;12.40;;;;;;;;;;4933564;29;20111;-75
2022/03/29 09:45:50;;;;;;;17.85;10.75;;;;;;;;;;4935306;29;20036;-76
2022/03/29 09:48:30;;;;;;;25.10;11.10;;;;;;;;;;4915826;29;20055;-77
2022/03/29 09:51:17;;;;;;;22.50;12.00;;;;;;;;;;4916246;29;20069;-78
2022/03/29 09:53:53;;;;;;;20.48;11.73;;;;;;;;;;4915746;29;20111;-76
2022/03/29 09:56:28;;;;;;;26.40;12.23;;;;;;;;;;4916098;29;20111;-76
2022/03/29 09:59:08;;;;;;;19.27;11.65;;;;;;;;;;4915835;29;20040;-75
2022/03/29 10:01:51;;;;;;;18.23;11.45;;;;;;;;;;4915605;29;20036;-78
2022/03/29 10:04:18;;;;;;;20.60;11.33;;;;;;;;;;4919236;29;20032;-78
2022/03/29 10:06:46;;;;;;;22.02;11.88;;;;;;;;;;4934750;29;20102;-78
2022/03/29 10:09:27;;;;;;;17.90;11.63;;;;;;;;;;4933256;29;20040;-76
2022/03/29 10:11:58;;;;;;;20.30;11.05;;;;;;;;;;4934058;29;20039;-78
2022/03/29 10:14:25;;;;;;;20.42;10.82;;;;;;;;;;4926408;29;20047;-77
2022/03/29 10:16:56;;;;;;;17.00;10.00;;;;;;;;;;4934094;29;20016;-77
2022/03/29 10:19:22;;;;;;;15.38;10.15;;;;;;;;;;4934336;29;20098;-78
2022/03/29 10:21:48;;;;;;;17.83;9.68;;;;;;;;;;4934391;29;20027;-77
2022/03/29 10:24:16;;;;;;;26.80;10.40;;;;;;;;;;4933741;29;20036;-78
2022/03/29 10:26:44;;;;;;;24.17;10.65;;;;;;;;;;4934684;29;20374;-78
2022/03/29 10:29:11;;;;;;;16.42;9.85;;;;;;;;;;4933888;29;20466;-78
2022/03/29 10:31:40;;;;;;;18.27;9.63;;;;;;;;;;4934063;29;20055;-77
2022/03/29 10:34:13;;;;;;;18.23;9.18;;;;;;;;;;4933952;29;20046;-78
2022/03/29 10:37:14;;;;;;;13.40;9.05;;;;;;;;;;4933995;29;20110;-78
2022/03/29 10:40:02;;;;;;;17.33;8.45;;;;;;;;;;4934801;29;20044;-78
2022/03/29 10:42:44;;;;;;;19.10;9.68;;;;;;;;;;4937879;29;20044;-77
2022/03/29 10:45:22;;;;;;;19.20;9.95;;;;;;;;;;4938050;29;20036;-78
2022/03/29 10:47:58;;;;;;;19.92;10.35;;;;;;;;;;4938320;29;20035;-76
2022/03/29 10:50:50;;;;;;;19.02;9.75;;;;;;;;;;4937576;29;20478;-79
2022/03/29 10:53:36;;;;;;;18.05;10.00;;;;;;;;;;4938354;29;20036;-76
2022/03/29 10:56:12;;;;;;;18.58;9.27;;;;;;;;;;4937790;29;20043;-79
2022/03/29 10:58:56;;;;;;;21.75;8.73;;;;;;;;;;4937510;29;20043;-76
2022/03/29 11:01:22;;;;;;;22.00;9.23;;;;;;;;;;4936052;29;20111;-78
2022/03/29 11:04:01;;;;;;;19.50;9.75;;;;;;;;;;4937691;29;20106;-76
2022/03/29 11:06:27;;;;;;;16.02;8.82;;;;;;;;;;4937586;29;20028;-77
2022/03/29 11:09:19;;;;;;;25.80;8.38;;;;;;;;;;4935903;29;20028;-78
2022/03/29 11:11:47;;;;;;;16.52;9.52;;;;;;;;;;4935703;29;20043;-79
2022/03/29 11:14:34;;;;;;;20.85;7.68;;;;;;;;;;4936134;29;20043;-75
2022/03/29 11:17:09;;;;;;;16.77;7.22;;;;;;;;;;4937854;29;20039;-73
2022/03/29 11:19:48;;;;;;;18.55;8.18;;;;;;;;;;4936602;29;20498;-77
2022/03/29 11:22:34;;;;;;;16.42;7.15;;;;;;;;;;4936498;29;20344;-74
2022/03/29 11:25:06;;;;;;;14.85;6.88;;;;;;;;;;4937192;29;20126;-73
2022/03/29 11:27:36;;;;;;;16.23;7.95;;;;;;;;;;4937097;29;20123;-76
2022/03/29 11:30:12;;;;;;;29.75;12.38;;;;;;;;;;4936935;29;20047;-77
2022/03/29 11:32:43;;;;;;;12.60;6.40;;;;;;;;;;4937973;29;20039;-75
2022/03/29 11:35:11;;;;;;;18.75;7.20;;;;;;;;;;4938289;29;20039;-72
2022/03/29 11:37:43;;;;;;;17.98;6.82;;;;;;;;;;4937977;29;20028;-74
2022/03/29 11:40:14;;;;;;;15.65;6.18;;;;;;;;;;4937272;29;20042;-76
2022/03/29 11:42:55;;;;;;;14.73;5.50;;;;;;;;;;4937696;29;20031;-79
2022/03/29 11:45:23;;;;;;;21.75;6.22;;;;;;;;;;4937690;29;20140;-78
2022/03/29 11:48:00;;;;;;;13.23;5.57;;;;;;;;;;4937909;29;20020;-77
2022/03/29 11:50:38;;;;;;;15.85;5.18;;;;;;;;;;4937696;29;20474;-75
2022/03/29 11:53:18;;;;;;;20.08;7.00;;;;;;;;;;4936771;29;20120;-78
2022/03/29 11:55:58;;;;;;;18.40;5.90;;;;;;;;;;4937175;29;20406;-76
2022/03/29 11:58:35;;;;;;;14.45;5.43;;;;;;;;;;4937043;29;20040;-74
2022/03/29 12:01:09;;;;;;;14.02;4.97;;;;;;;;;;4938163;29;20434;-77
2022/03/29 12:03:38;;;;;;;18.08;4.75;;;;;;;;;;4937146;29;20050;-76
2022/03/29 12:06:17;;;;;;;10.82;4.10;;;;;;;;;;4937174;29;20074;-74
2022/03/29 12:09:07;;;;;;;16.33;4.88;;;;;;;;;;4936663;29;20138;-73
2022/03/29 12:11:34;;;;;;;15.40;5.20;;;;;;;;;;4937311;29;20203;-75
2022/03/29 12:14:10;;;;;;;15.70;5.18;;;;;;;;;;4937032;29;20089;-77
2022/03/29 12:16:37;;;;;;;18.00;6.82;;;;;;;;;;4936221;29;20039;-79
2022/03/29 12:19:11;;;;;;;14.57;4.72;;;;;;;;;;4937173;29;20111;-75
2022/03/29 12:21:37;;;;;;;;;;;;;;;;;;4937654;29;20786;-75
2022/03/29 12:24:11;;;;;;;16.67;4.55;;;;;;;;;;4937184;29;19921;-76
2022/03/29 12:27:07;;;;;;;12.98;4.43;;;;;;;;;;4936954;29;20032;-77
2022/03/29 12:29:51;;;;;;;21.60;5.13;;;;;;;;;;4936626;29;20048;-78
2022/03/29 12:32:17;;;;;;;19.25;4.43;;;;;;;;;;4936991;29;20364;-76
2022/03/29 12:34:44;;;;;;;13.48;4.95;;;;;;;;;;4937069;29;20453;-76
2022/03/29 12:37:15;;;;;;;16.85;4.68;;;;;;;;;;4937251;29;20059;-78
2022/03/29 12:39:43;;;;;;;16.33;4.38;;;;;;;;;;4936863;29;20073;-76
2022/03/29 12:42:15;;;;;;;16.00;5.55;;;;;;;;;;4937114;29;20111;-76
2022/03/29 12:44:46;;;;;;;15.63;5.30;;;;;;;;;;4936745;29;20032;-79
2022/03/29 12:47:13;;;;;;;19.35;4.80;;;;;;;;;;4936825;29;20182;-76
2022/03/29 12:49:43;;;;;;;15.05;4.20;;;;;;;;;;4936571;29;20043;-75
2022/03/29 12:52:11;;;;;;;17.73;5.13;;;;;;;;;;4936866;29;20652;-75
2022/03/29 12:54:41;;;;;;;17.30;5.35;;;;;;;;;;4936955;29;20038;-76
2022/03/29 12:57:10;;;;;;;17.58;5.20;;;;;;;;;;4936588;29;20423;-74
2022/03/29 12:59:40;;;;;;;12.70;4.60;;;;;;;;;;4936673;29;20035;-75
2022/03/29 13:02:15;;;;;;;18.52;4.72;;;;;;;;;;4936571;29;20493;-77
2022/03/29 13:04:47;;;;;;;19.38;4.53;;;;;;;;;;4936671;29;20039;-74
2022/03/29 13:07:39;;;;;;;14.15;4.38;;;;;;;;;;4933746;29;20040;-74
2022/03/29 13:10:12;;;;;;;11.35;5.00;;;;;;;;;;4935956;29;20086;-76
2022/03/29 13:13:01;;;;;;;16.30;5.90;;;;;;;;;;4936528;29;20032;-75
2022/03/29 13:15:55;;;;;;;13.90;4.70;;;;;;;;;;4935929;29;20031;-76
2022/03/29 13:19:03;;;;;;;14.98;4.07;;;;;;;;;;4935762;29;20035;-74
2022/03/29 13:21:32;;;;;;;19.83;5.18;;;;;;;;;;4917256;29;20032;-75
2022/03/29 13:24:15;;;;;;;22.15;4.88;;;;;;;;;;4916924;29;20376;-77
2022/03/29 13:26:44;;;;;;;19.15;5.43;;;;;;;;;;4916632;29;20036;-76
2022/03/29 13:29:12;;;;;;;22.20;4.40;;;;;;;;;;4916680;29;20044;-76
2022/03/29 13:31:40;;;;;;;17.02;4.45;;;;;;;;;;4923879;29;20138;-77
2022/03/29 13:34:09;;;;;;;18.58;4.95;;;;;;;;;;4936235;29;20043;-77
2022/03/29 13:36:36;;;;;;;19.13;4.75;;;;;;;;;;4935357;29;20028;-76
2022/03/29 13:39:02;;;;;;;18.13;4.88;;;;;;;;;;4935043;29;20463;-77
2022/03/29 13:41:29;;;;;;;15.25;4.88;;;;;;;;;;4935426;29;20673;-78
2022/03/29 13:43:55;;;;;;;17.38;4.88;;;;;;;;;;4935253;29;20039;-78
2022/03/29 13:46:21;;;;;;;20.95;5.22;;;;;;;;;;4935327;29;20024;-79
2022/03/29 13:48:47;;;;;;;17.98;4.72;;;;;;;;;;4935237;29;20078;-76
2022/03/29 13:51:15;;;;;;;21.55;5.70;;;;;;;;;;4935427;29;20083;-78
2022/03/29 13:53:42;;;;;;;10.95;4.97;;;;;;;;;;4935193;29;20036;-80
2022/03/29 13:56:08;;;;;;;17.17;4.35;;;;;;;;;;4935197;29;20099;-75
2022/03/29 13:58:35;;;;;;;21.00;4.55;;;;;;;;;;4935244;29;20039;-74
2022/03/29 14:01:01;;;;;;;21.55;5.22;;;;;;;;;;4935236;29;20023;-78
2022/03/29 14:03:28;;;;;;;13.50;4.57;;;;;;;;;;4935192;29;20405;-79
2022/03/29 14:05:54;;;;;;;21.60;5.22;;;;;;;;;;4935259;29;20103;-73
2022/03/29 14:08:21;;;;;;;14.52;4.95;;;;;;;;;;4935948;29;20039;-78
2022/03/29 14:10:47;;;;;;;14.45;4.45;;;;;;;;;;4934631;29;20024;-74
2022/03/29 14:13:14;;;;;;;15.43;4.40;;;;;;;;;;4935080;29;20058;-75
2022/03/29 14:15:47;;;;;;;14.45;4.13;;;;;;;;;;4940023;29;20028;-76
2022/03/29 14:18:14;;;;;;;15.15;4.38;;;;;;;;;;4941965;29;20032;-75
2022/03/29 14:20:41;;;;;;;22.88;4.70;;;;;;;;;;4941558;29;20170;-74
2022/03/29 14:23:09;;;;;;;15.48;4.20;;;;;;;;;;4941501;29;20052;-77
2022/03/29 14:25:37;;;;;;;20.13;4.63;;;;;;;;;;4941274;29;20076;-76
2022/03/29 14:28:05;;;;;;;23.17;4.30;;;;;;;;;;4941265;29;20052;-77
2022/03/29 14:30:32;;;;;;;13.52;3.80;;;;;;;;;;4941338;29;20138;-79
2022/03/29 14:32:57;;;;;;;21.60;4.45;;;;;;;;;;4941131;29;20094;-76
2022/03/29 14:35:23;;;;;;;17.40;5.20;;;;;;;;;;4941463;29;20431;-75
2022/03/29 14:37:49;;;;;;;17.27;4.88;;;;;;;;;;4941655;29;20122;-75
2022/03/29 14:40:15;;;;;;;14.57;4.50;;;;;;;;;;4941427;29;20430;-75
2022/03/29 14:42:41;;;;;;;18.60;4.57;;;;;;;;;;4941655;29;20032;-75
2022/03/29 14:45:09;;;;;;;18.15;5.18;;;;;;;;;;4941525;29;20042;-75
2022/03/29 14:47:38;;;;;;;17.48;5.70;;;;;;;;;;4941201;29;20509;-76